Partridge Green, United Kingdom
Current Conditions -  °F | °C
As of 9:20 AM on Friday 24 Oct 2014 (Local Time) from EGKA Reporting Station
Broken Clouds Broken Clouds  
Wind Chill: 59°   Ceiling: 1300
Heat Index: 59°   Visibility: 6mi
Dew Point: 59°   Wind: 7mph
Humidity: 100%   Direction: 230°SW
Pressure: 30"   Gusts: NA
Location:  50.96°N, 0.31°W
Report Text: EGKA 240820Z 23006KT 9000 FEW007 SCT010 BKN013 15/15 Q1016
Loading
Personal Weather Stations






























Interactive Weather Map
Tropical Storm Tracking
New forecast layout! Learn more

10-Day Weather Forecast

Advertisements
Track Severe Weather on mobile